Fort Lauderdale, FL (33304)

2:18 PM EDT on September 30, 2014 (GMT -0400)
Lauderdale Harbors | Change Station
CLOSE
Current Station
Personal Weather Station
Location: Fort Lauderdale, FL
Elevation: 16 ft
Nearby Weather Stations

Elev 16 ft 26.11 °N, 80.13 °W | Updated 2 minutes ago

Mostly Cloudy
Mostly Cloudy
89.1 °F
Feels Like 103 °F
N
5.0
Wind Variable Wind from West
Gusts 5.0 mph

Today
High -- | Low -- °F
--% Chance of Precip.
Yesterday
High -- | Low -- °F
Precip. -- in
7:12 AM 7:08 PM
Waxing Crescent, 39% visible
Pressure 29.83 in
Visibility 10.0 miles
Clouds Few 2000 ft
Scattered Clouds 3700 ft
Scattered Clouds 6500 ft
Mostly Cloudy 9500 ft
Mostly Cloudy 25000 ft
Heat Index 103 °F
Dew Point 78 °F
Humidity 69%
Rainfall 0.00 in
Snow Depth Not available.
UV 6 out of 12
Pollen 3.20 out of 12
Ozone Good
Flu Activity Not available.
METAR KFLL 301753Z COR 25011G17KT 10SM FEW020 SCT037 SCT065 BKN095 BKN250 31/24 A2983 RMK AO2 TSE14 SLP101 T03110244 10322 20261 58014

More Conditions Fewer Conditions

Pressure 29.83 in
Visibility 10.0 miles
Clouds Few 2000 ft
Scattered Clouds 3700 ft
Scattered Clouds 6500 ft
Mostly Cloudy 9500 ft
Mostly Cloudy 25000 ft
Heat Index 103 °F
Dew Point 78 °F
Humidity 69%
Rainfall 0.00 in
Snow Depth Not available.
UV 6 out of 12
Pollen 3.20 out of 12
Ozone Good
Flu Activity Not available.
METAR KFLL 301753Z COR 25011G17KT 10SM FEW020 SCT037 SCT065 BKN095 BKN250 31/24 A2983 RMK AO2 TSE14 SLP101 T03110244 10322 20261 58014

More Conditions Fewer Conditions

10-Day Weather Forecast

Almanac

Astronomy

Sep. 30, 2014 Rise Set
Actual Time 7:12 AM EDT 7:08 PM EDT
Civil Twilight 6:49 AM EDT 7:31 PM EDT
Nautical Twilight 6:22 AM EDT 7:57 PM EDT
Astronomical Twilight 5:55 AM EDT 8:24 PM EDT
Moon 12:53 PM EDT No Moon Set
Length of Visible Light 12h 41m
Length of Day
11h 55m
Tomorrow will be 1m 31s shorter.
Waxing Crescent, 39% of the Moon is Illuminated
Today
Waxing Crescent
Oct 1
First Quarter
Oct 8
Full
Oct 15
Last Quarter
Oct 23
New

Today's Extremes

State Highs State Lows

Community

WunderPhotos

Upload Photos

1,757,710 photos uploaded!

Nearby

Air Quality

  Air Quality AQ Index Pollutant
Yesterday Good
OZONE
Current Good
OZONE
Tuesday Good
OZONE
Tuesday Good
PM2.5
Wednesday Good
OZONE
Wednesday Good
PM2.5
Thursday Good
OZONE
Thursday Good
PM2.5
Friday Good
OZONE
Friday Good
PM2.5
Saturday Good
OZONE
Saturday Good
PM2.5

Snow Depth

Station Depth Elevation
No new snow has been reported.

Earthquake Activity

City Distance Mag. Time & Date
No recent earthquake activity has been reported nearby.
Minimum magnitude displayed is 2.5.

Coastal Water Temperatures

Place Temperature
Virginia Key, FL 86.0 °F

Nearby Weather Stations